createdAt,value
2023-05-19T00:00:16.135Z,101346.77
2023-05-19T00:03:05.312Z,101341.45
2023-05-19T00:05:37.053Z,101330.83
2023-05-19T00:08:07.073Z,101324.33
2023-05-19T00:10:36.210Z,101319.56
2023-05-19T00:13:04.997Z,101322.30
2023-05-19T00:15:34.042Z,101321.13
2023-05-19T00:18:02.800Z,101319.91
2023-05-19T00:20:31.592Z,101315.33
2023-05-19T00:23:00.563Z,101321.72
2023-05-19T00:25:29.210Z,101320.74
2023-05-19T00:27:59.333Z,101331.21
2023-05-19T00:30:28.100Z,101340.20
2023-05-19T00:32:56.750Z,101342.20
2023-05-19T00:35:25.510Z,101341.79
2023-05-19T00:37:54.183Z,101353.10
2023-05-19T00:40:24.599Z,101356.33
2023-05-19T00:42:54.221Z,101359.58
2023-05-19T00:45:23.120Z,101353.48
2023-05-19T00:47:51.888Z,101353.73
2023-05-19T00:50:20.603Z,101352.07
2023-05-19T00:52:49.278Z,101349.26
2023-05-19T00:55:18.125Z,101346.10
2023-05-19T00:57:47.908Z,101347.50
2023-05-19T01:00:16.735Z,101346.61
2023-05-19T01:02:45.426Z,101349.02
2023-05-19T01:05:14.285Z,101341.50
2023-05-19T01:07:43.258Z,101342.50
2023-05-19T01:10:11.932Z,101344.89
2023-05-19T01:12:41.166Z,101347.26
2023-05-19T01:15:10.865Z,101345.13
2023-05-19T01:18:12.116Z,101344.69
2023-05-19T01:20:55.300Z,101353.66
2023-05-19T01:24:09.294Z,101351.14
2023-05-19T01:28:07.745Z,101353.61
2023-05-19T01:30:52.864Z,101353.01
2023-05-19T01:33:23.728Z,101356.60
2023-05-19T01:35:54.341Z,101361.08
2023-05-19T01:38:25.553Z,101356.02
2023-05-19T01:40:56.363Z,101366.44
2023-05-19T01:43:27.500Z,101363.17
2023-05-19T01:45:58.980Z,101363.38
2023-05-19T01:48:29.148Z,101363.98
2023-05-19T01:51:00.414Z,101364.11
2023-05-19T01:53:29.073Z,101364.73
2023-05-19T01:55:58.093Z,101360.55
2023-05-19T01:58:47.740Z,101367.89
2023-05-19T02:01:55.418Z,101371.09
2023-05-19T02:04:40.272Z,101372.34
2023-05-19T02:07:42.907Z,101372.32
2023-05-19T02:10:18.400Z,101371.09
2023-05-19T02:12:52.178Z,101372.81
2023-05-19T02:15:27.621Z,101372.91
2023-05-19T02:18:00.458Z,101376.14
2023-05-19T02:20:29.672Z,101373.65
2023-05-19T02:22:58.271Z,101379.16
2023-05-19T02:25:27.526Z,101381.43
2023-05-19T02:27:58.617Z,101384.45
2023-05-19T02:30:27.336Z,101384.79
2023-05-19T02:32:55.998Z,101384.95
2023-05-19T02:35:24.665Z,101388.11
2023-05-19T02:37:54.358Z,101391.84
2023-05-19T02:40:23.824Z,101394.64
2023-05-19T02:42:52.549Z,101395.67
2023-05-19T02:45:21.250Z,101399.27
2023-05-19T02:47:49.854Z,101401.40
2023-05-19T02:50:18.582Z,101404.96
2023-05-19T02:52:47.147Z,101410.08
2023-05-19T02:55:17.424Z,101415.02
2023-05-19T02:57:46.311Z,101421.66
2023-05-19T03:00:16.083Z,101420.23
2023-05-19T03:02:44.851Z,101428.90
2023-05-19T03:05:14.467Z,101430.48
2023-05-19T03:07:46.038Z,101431.05
2023-05-19T03:10:14.645Z,101435.21
2023-05-19T03:12:43.248Z,101431.21
2023-05-19T03:15:13.481Z,101427.48
2023-05-19T03:17:42.214Z,101433.27
2023-05-19T03:20:11.527Z,101441.83
2023-05-19T03:22:40.192Z,101438.61
2023-05-19T03:25:11.748Z,101437.48
2023-05-19T03:27:40.455Z,101441.36
2023-05-19T03:30:10.624Z,101442.27
2023-05-19T03:32:56.034Z,101444.91
2023-05-19T03:35:25.167Z,101446.48
2023-05-19T03:37:54.722Z,101453.84
2023-05-19T03:40:23.748Z,101442.96
2023-05-19T03:42:54.613Z,101444.92
2023-05-19T03:45:23.479Z,101447.34
2023-05-19T03:47:53.214Z,101453.41
2023-05-19T03:50:41.247Z,101450.11
2023-05-19T03:53:20.391Z,101455.00
2023-05-19T03:55:49.916Z,101457.39
2023-05-19T03:58:19.187Z,101456.75
2023-05-19T04:00:48.291Z,101462.70
2023-05-19T04:03:17.068Z,101473.04
2023-05-19T04:05:46.115Z,101484.34
2023-05-19T04:08:15.158Z,101481.86
2023-05-19T04:10:43.849Z,101487.23
2023-05-19T04:13:12.704Z,101475.02
2023-05-19T04:15:42.035Z,101478.75
2023-05-19T04:18:11.404Z,101476.91
2023-05-19T04:20:43.514Z,101480.96
2023-05-19T04:23:12.588Z,101482.02
2023-05-19T04:25:42.482Z,101480.39
2023-05-19T04:28:11.173Z,101479.55
2023-05-19T04:30:39.876Z,101473.46
2023-05-19T04:33:11.777Z,101472.82
2023-05-19T04:35:41.345Z,101466.95
2023-05-19T04:38:12.213Z,101474.89
2023-05-19T04:40:42.443Z,101480.10
2023-05-19T04:43:11.559Z,101486.29
2023-05-19T04:45:42.774Z,101487.05
2023-05-19T04:48:12.353Z,101485.08
2023-05-19T04:50:42.310Z,101478.27
2023-05-19T04:53:11.740Z,101479.88
2023-05-19T04:55:40.508Z,101485.21
2023-05-19T04:58:10.891Z,101492.41
2023-05-19T05:00:39.465Z,101494.35
2023-05-19T05:03:09.210Z,101489.92
2023-05-19T05:05:37.935Z,101484.09
2023-05-19T05:08:07.354Z,101479.34
2023-05-19T05:10:38.796Z,101478.55
2023-05-19T05:13:09.974Z,101472.95
2023-05-19T05:15:40.436Z,101473.67
2023-05-19T05:18:10.177Z,101478.30
2023-05-19T05:20:39.676Z,101492.38
2023-05-19T05:23:09.776Z,101498.13
2023-05-19T05:25:39.654Z,101494.58
2023-05-19T05:28:08.628Z,101484.71
2023-05-19T05:30:38.263Z,101481.67
2023-05-19T05:33:08.214Z,101485.11
2023-05-19T05:35:39.313Z,101484.87
2023-05-19T05:38:09.029Z,101493.55
2023-05-19T05:40:38.023Z,101506.70
2023-05-19T05:43:06.866Z,101504.91
2023-05-19T05:45:38.581Z,101507.09
2023-05-19T05:48:07.945Z,101509.26
2023-05-19T05:50:37.209Z,101514.81
2023-05-19T05:53:07.525Z,101516.06
2023-05-19T05:55:36.857Z,101512.23
2023-05-19T05:58:06.602Z,101514.70
2023-05-19T06:00:37.007Z,101521.86
2023-05-19T06:03:06.275Z,101521.11
2023-05-19T06:05:35.034Z,101522.10
2023-05-19T06:08:04.520Z,101524.91
2023-05-19T06:10:33.725Z,101520.27
2023-05-19T06:13:03.023Z,101527.49
2023-05-19T06:15:32.360Z,101516.67
2023-05-19T06:18:08.846Z,101522.89
2023-05-19T06:20:37.321Z,101527.66
2023-05-19T06:23:05.890Z,101529.42
2023-05-19T06:25:34.584Z,101528.96
2023-05-19T06:28:03.716Z,101527.02
2023-05-19T06:30:32.346Z,101522.98
2023-05-19T06:33:08.802Z,101527.36
2023-05-19T06:35:38.681Z,101520.17
2023-05-19T06:38:07.285Z,101527.00
2023-05-19T06:44:10.864Z,101523.97
2023-05-19T06:46:39.567Z,101524.11
2023-05-19T06:49:08.122Z,101525.54
2023-05-19T06:51:39.644Z,101517.75
2023-05-19T06:54:11.102Z,101517.67
2023-05-19T06:56:39.898Z,101515.85
2023-05-19T06:59:08.754Z,101515.18
2023-05-19T07:01:40.006Z,101510.23
2023-05-19T07:04:08.677Z,101500.29
2023-05-19T07:06:37.329Z,101502.48
2023-05-19T07:09:05.914Z,101507.04
2023-05-19T07:11:35.220Z,101520.71
2023-05-19T07:14:04.164Z,101520.58
2023-05-19T07:16:33.074Z,101512.34
2023-05-19T07:19:01.617Z,101517.30
2023-05-19T07:21:30.264Z,101518.42
2023-05-19T07:23:58.651Z,101521.45
2023-05-19T07:30:01.026Z,101521.77
2023-05-19T07:32:29.435Z,101527.95
2023-05-19T07:34:58.062Z,101520.58
2023-05-19T07:37:26.821Z,101505.57
2023-05-19T07:39:55.313Z,101499.45
2023-05-19T07:42:23.912Z,101498.77
2023-05-19T07:44:52.544Z,101505.73
2023-05-19T07:47:21.218Z,101502.67
2023-05-19T07:49:51.744Z,101506.91
2023-05-19T07:52:20.802Z,101515.30
2023-05-19T07:54:49.311Z,101510.11
2023-05-19T07:57:19.691Z,101513.26
2023-05-19T07:59:48.210Z,101513.20
2023-05-19T08:02:16.701Z,101516.14
2023-05-19T08:04:45.300Z,101509.40
2023-05-19T08:07:13.926Z,101500.19
2023-05-19T08:09:42.400Z,101492.45
2023-05-19T08:12:11.169Z,101510.91
2023-05-19T08:14:39.677Z,101501.86
2023-05-19T08:17:08.162Z,101496.55
2023-05-19T08:19:36.717Z,101497.41
2023-05-19T08:22:05.453Z,101494.20
2023-05-19T08:24:34.075Z,101497.42
2023-05-19T08:27:02.778Z,101500.40
2023-05-19T08:29:32.101Z,101490.40
2023-05-19T08:32:01.955Z,101485.42
2023-05-19T08:34:30.544Z,101495.36
2023-05-19T08:36:59.953Z,101492.63
2023-05-19T08:39:28.649Z,101483.59
2023-05-19T08:41:57.246Z,101477.50
2023-05-19T08:44:25.637Z,101493.42
2023-05-19T08:46:56.576Z,101486.96
2023-05-19T08:49:30.872Z,101488.91
2023-05-19T08:52:22.282Z,101480.48
2023-05-19T08:55:09.728Z,101480.19
2023-05-19T08:57:38.770Z,101483.73
2023-05-19T09:00:12.500Z,101473.14
2023-05-19T09:02:50.642Z,101474.79
2023-05-19T09:05:29.658Z,101478.80
2023-05-19T09:07:58.447Z,101475.85
2023-05-19T09:10:29.022Z,101467.02
2023-05-19T09:12:57.804Z,101482.73
2023-05-19T09:15:29.291Z,101475.25
2023-05-19T09:18:12.529Z,101469.95
2023-05-19T09:20:43.973Z,101470.85
2023-05-19T09:23:37.863Z,101473.09
2023-05-19T09:29:37.588Z,101463.84
2023-05-19T09:32:06.533Z,101465.89
2023-05-19T09:34:35.074Z,101462.13
2023-05-19T09:37:03.964Z,101460.42
2023-05-19T09:39:33.066Z,101465.95
2023-05-19T09:42:05.570Z,101454.36
2023-05-19T09:44:35.608Z,101455.02
2023-05-19T09:47:05.522Z,101452.34
2023-05-19T09:49:34.685Z,101452.82
2023-05-19T09:52:04.222Z,101452.87
2023-05-19T09:54:34.657Z,101448.63
2023-05-19T09:57:07.758Z,101440.34
2023-05-19T09:59:39.296Z,101440.36
2023-05-19T10:02:17.069Z,101439.64
2023-05-19T10:04:47.827Z,101437.30
2023-05-19T10:07:17.939Z,101431.79
2023-05-19T10:09:49.117Z,101431.45
2023-05-19T10:12:18.462Z,101425.15
2023-05-19T10:14:49.091Z,101425.09
2023-05-19T10:17:17.871Z,101428.26
2023-05-19T10:19:50.552Z,101436.83
2023-05-19T10:22:20.191Z,101431.56
2023-05-19T10:24:48.746Z,101430.01
2023-05-19T10:27:18.866Z,101432.02
2023-05-19T10:29:52.101Z,101426.27
2023-05-19T10:32:28.819Z,101410.32
2023-05-19T10:35:58.245Z,101415.50
2023-05-19T10:38:59.129Z,101409.89
2023-05-19T10:41:54.029Z,101412.98
2023-05-19T10:44:55.188Z,101404.08
2023-05-19T10:47:27.985Z,101389.41
2023-05-19T10:49:57.016Z,101379.47
2023-05-19T10:52:30.339Z,101382.46
2023-05-19T10:54:59.144Z,101387.67
2023-05-19T10:57:28.504Z,101392.20
2023-05-19T10:59:57.593Z,101396.08
2023-05-19T11:02:40.960Z,101391.33
2023-05-19T11:05:18.302Z,101389.73
2023-05-19T11:08:05.379Z,101391.83
2023-05-19T11:10:35.169Z,101388.79
2023-05-19T11:13:06.486Z,101387.52
2023-05-19T11:15:38.842Z,101400.45
2023-05-19T11:18:08.011Z,101394.05
2023-05-19T11:20:39.409Z,101395.50
2023-05-19T11:23:18.537Z,101390.77
2023-05-19T11:25:49.767Z,101394.02
2023-05-19T11:28:28.282Z,101388.21
2023-05-19T11:30:59.272Z,101389.02
2023-05-19T11:33:28.032Z,101385.16
2023-05-19T11:35:58.677Z,101380.12
2023-05-19T11:38:30.261Z,101388.30
2023-05-19T11:40:59.199Z,101379.38
2023-05-19T11:43:27.767Z,101374.95
2023-05-19T11:45:56.527Z,101373.39
2023-05-19T11:48:26.737Z,101367.09
2023-05-19T11:50:56.997Z,101360.88
2023-05-19T11:53:25.635Z,101357.91
2023-05-19T11:55:54.242Z,101356.14
2023-05-19T11:58:27.506Z,101357.73
2023-05-19T12:00:56.769Z,101347.51
2023-05-19T12:03:28.510Z,101345.39
2023-05-19T12:05:57.462Z,101336.64
2023-05-19T12:08:27.374Z,101328.21
2023-05-19T12:10:56.472Z,101334.28
2023-05-19T12:13:25.765Z,101323.75
2023-05-19T12:15:54.379Z,101320.59
2023-05-19T12:18:23.035Z,101321.36
2023-05-19T12:20:52.049Z,101312.78
2023-05-19T12:23:20.925Z,101307.09
2023-05-19T12:25:49.778Z,101304.55
2023-05-19T12:28:19.791Z,101305.61
2023-05-19T12:30:53.253Z,101298.92
2023-05-19T12:33:24.669Z,101305.64
2023-05-19T12:35:55.061Z,101306.77
2023-05-19T12:38:23.714Z,101309.09
2023-05-19T12:40:52.439Z,101297.53
2023-05-19T12:43:25.581Z,101293.95
2023-05-19T12:45:54.403Z,101283.94
2023-05-19T12:48:23.895Z,101276.23
2023-05-19T12:50:54.544Z,101271.64
2023-05-19T12:53:50.722Z,101271.90
2023-05-19T12:56:19.224Z,101263.34
2023-05-19T12:58:47.806Z,101269.65
2023-05-19T13:01:19.040Z,101273.03
2023-05-19T13:03:47.811Z,101284.98
2023-05-19T13:06:16.400Z,101294.63
2023-05-19T13:08:47.483Z,101313.90
2023-05-19T13:11:15.997Z,101314.69
2023-05-19T13:13:44.725Z,101308.49
2023-05-19T13:16:13.632Z,101312.45
2023-05-19T13:18:42.307Z,101320.70
2023-05-19T13:21:10.799Z,101325.54
2023-05-19T13:23:40.004Z,101326.02
2023-05-19T13:26:09.329Z,101332.50
2023-05-19T13:28:54.248Z,101323.23
2023-05-19T13:31:22.851Z,101310.15
2023-05-19T13:33:51.558Z,101292.78
2023-05-19T13:36:19.880Z,101285.13
2023-05-19T13:38:48.387Z,101269.36
2023-05-19T13:41:18.486Z,101246.72
2023-05-19T13:43:47.001Z,101246.40
2023-05-19T13:46:15.476Z,101262.52
2023-05-19T13:48:44.063Z,101249.84
2023-05-19T13:51:13.604Z,101257.05
2023-05-19T13:53:42.649Z,101264.40
2023-05-19T13:56:11.324Z,101284.15
2023-05-19T13:58:40.135Z,101291.36
2023-05-19T14:01:09.652Z,101274.35
2023-05-19T14:03:38.262Z,101266.96
2023-05-19T14:06:07.298Z,101259.93
2023-05-19T14:08:36.532Z,101259.66
2023-05-19T14:11:05.186Z,101254.45
2023-05-19T14:13:38.263Z,101263.52
2023-05-19T14:16:09.805Z,101265.81
2023-05-19T14:18:38.385Z,101274.80
2023-05-19T14:21:07.048Z,101266.92
2023-05-19T14:23:35.698Z,101272.50
2023-05-19T14:26:04.343Z,101275.84
2023-05-19T14:28:32.967Z,101290.55
2023-05-19T14:31:01.572Z,101289.54
2023-05-19T14:33:34.934Z,101300.02
2023-05-19T14:36:05.575Z,101297.70
2023-05-19T14:38:34.305Z,101285.29
2023-05-19T14:41:13.465Z,101284.30
2023-05-19T14:43:43.364Z,101274.48
2023-05-19T14:46:11.991Z,101274.40
2023-05-19T14:48:40.566Z,101273.77
2023-05-19T14:51:09.152Z,101269.46
2023-05-19T14:53:37.817Z,101266.39
2023-05-19T14:56:07.546Z,101256.67
2023-05-19T14:58:36.280Z,101256.19
2023-05-19T15:01:04.968Z,101263.52
2023-05-19T15:03:33.499Z,101276.69
2023-05-19T15:06:02.220Z,101284.70
2023-05-19T15:08:30.883Z,101281.52
2023-05-19T15:10:59.399Z,101281.20
2023-05-19T15:13:29.152Z,101283.95
2023-05-19T15:16:12.474Z,101283.15
2023-05-19T15:18:44.897Z,101285.42
2023-05-19T15:21:13.596Z,101293.88
2023-05-19T15:23:42.303Z,101301.61
2023-05-19T15:26:10.691Z,101303.48
2023-05-19T15:28:39.193Z,101302.65
2023-05-19T15:31:07.703Z,101300.33
2023-05-19T15:33:36.381Z,101303.36
2023-05-19T15:36:05.341Z,101305.55
2023-05-19T15:38:36.770Z,101299.39
2023-05-19T15:41:08.431Z,101300.87
2023-05-19T15:43:37.083Z,101308.75
2023-05-19T15:46:05.865Z,101319.16
2023-05-19T15:48:34.772Z,101321.63
2023-05-19T15:51:03.521Z,101323.45
2023-05-19T15:53:32.044Z,101324.23
2023-05-19T15:56:01.183Z,101332.59
2023-05-19T15:58:30.832Z,101337.48
2023-05-19T16:00:59.465Z,101345.39
2023-05-19T16:03:28.241Z,101343.52
2023-05-19T16:05:57.057Z,101353.59
2023-05-19T16:08:25.892Z,101344.86
2023-05-19T16:10:55.377Z,101321.56
2023-05-19T16:13:24.222Z,101311.31
2023-05-19T16:15:53.007Z,101310.52
2023-05-19T16:18:21.624Z,101304.65
2023-05-19T16:20:51.605Z,101300.11
2023-05-19T16:23:20.155Z,101296.77
2023-05-19T16:25:48.900Z,101291.38
2023-05-19T16:28:17.610Z,101288.96
2023-05-19T16:30:46.389Z,101287.63
2023-05-19T16:33:20.170Z,101293.07
2023-05-19T16:35:48.822Z,101299.45
2023-05-19T16:38:17.403Z,101308.05
2023-05-19T16:40:45.875Z,101318.67
2023-05-19T16:43:14.556Z,101316.86
2023-05-19T16:45:43.116Z,101312.00
2023-05-19T16:48:11.729Z,101302.98
2023-05-19T16:50:40.254Z,101295.67
2023-05-19T16:53:08.648Z,101292.58
2023-05-19T16:55:37.292Z,101305.98
2023-05-19T16:58:05.792Z,101310.61
2023-05-19T17:00:35.112Z,101310.61
2023-05-19T17:03:05.126Z,101311.80
2023-05-19T17:05:33.901Z,101321.80
2023-05-19T17:08:02.586Z,101320.70
2023-05-19T17:10:35.051Z,101314.77
2023-05-19T17:13:03.815Z,101313.64
2023-05-19T17:15:34.884Z,101320.05
2023-05-19T17:18:03.727Z,101327.58
2023-05-19T17:20:32.442Z,101328.85
2023-05-19T17:23:01.516Z,101325.98
2023-05-19T17:25:29.917Z,101326.28
2023-05-19T17:27:58.500Z,101330.61
2023-05-19T17:30:27.359Z,101334.92
2023-05-19T17:33:03.235Z,101328.42
2023-05-19T17:35:33.589Z,101331.95
2023-05-19T17:38:02.040Z,101335.21
2023-05-19T17:40:31.129Z,101337.75
2023-05-19T17:42:59.864Z,101338.89
2023-05-19T17:45:28.384Z,101339.09
2023-05-19T17:47:56.807Z,101339.65
2023-05-19T17:50:25.434Z,101346.48
2023-05-19T17:52:54.655Z,101343.27
2023-05-19T17:55:28.147Z,101347.05
2023-05-19T17:57:57.711Z,101349.57
2023-05-19T18:00:26.444Z,101353.77
2023-05-19T18:02:57.179Z,101353.30
2023-05-19T18:05:26.725Z,101359.97
2023-05-19T18:07:57.599Z,101430.63
2023-05-19T18:10:27.679Z,101495.23
2023-05-19T18:12:56.204Z,101493.98
2023-05-19T18:15:24.645Z,101477.36
2023-05-19T18:17:53.234Z,101485.05
2023-05-19T18:20:23.714Z,101489.67
2023-05-19T18:22:54.798Z,101488.95
2023-05-19T18:25:23.873Z,101489.54
2023-05-19T18:27:55.928Z,101485.98
2023-05-19T18:30:24.469Z,101479.75
2023-05-19T18:32:53.635Z,101474.75
2023-05-19T18:35:24.503Z,101471.02
2023-05-19T18:37:57.584Z,101469.55
2023-05-19T18:40:26.316Z,101465.25
2023-05-19T18:42:54.867Z,101453.21
2023-05-19T18:45:23.398Z,101447.66
2023-05-19T18:47:52.051Z,101441.90
2023-05-19T18:50:20.819Z,101432.62
2023-05-19T18:52:49.374Z,101433.89
2023-05-19T18:55:17.979Z,101430.24
2023-05-19T18:57:46.541Z,101426.45
2023-05-19T19:00:15.863Z,101422.48
2023-05-19T19:02:44.633Z,101422.23
2023-05-19T19:05:14.203Z,101422.66
2023-05-19T19:07:44.871Z,101422.38
2023-05-19T19:10:13.620Z,101420.16
2023-05-19T19:12:42.098Z,101423.21
2023-05-19T19:15:11.483Z,101420.40
2023-05-19T19:17:40.308Z,101416.80
2023-05-19T19:20:09.638Z,101416.38
2023-05-19T19:22:38.466Z,101411.29
2023-05-19T19:25:08.560Z,101409.77
2023-05-19T19:27:40.285Z,101409.33
2023-05-19T19:30:09.671Z,101411.44
2023-05-19T19:32:38.334Z,101412.31
2023-05-19T19:35:07.276Z,101409.77
2023-05-19T19:37:35.799Z,101407.14
2023-05-19T19:40:04.871Z,101401.99
2023-05-19T19:42:33.396Z,101411.69
2023-05-19T19:45:02.270Z,101414.83
2023-05-19T19:47:30.956Z,101415.05
2023-05-19T19:50:01.260Z,101417.81
2023-05-19T19:52:29.823Z,101419.05
2023-05-19T19:54:58.303Z,101424.98
2023-05-19T19:57:27.222Z,101427.77
2023-05-19T19:59:57.438Z,101435.95
2023-05-19T20:02:26.577Z,101442.23
2023-05-19T20:04:55.376Z,101445.81
2023-05-19T20:07:23.891Z,101448.40
2023-05-19T20:09:52.823Z,101446.06
2023-05-19T20:12:22.439Z,101446.23
2023-05-19T20:14:54.092Z,101444.45
2023-05-19T20:17:22.580Z,101447.26
2023-05-19T20:19:51.054Z,101449.00
2023-05-19T20:22:19.331Z,101446.98
2023-05-19T20:24:47.713Z,101446.59
2023-05-19T20:27:16.144Z,101451.32
2023-05-19T20:29:45.592Z,101448.88
2023-05-19T20:32:13.984Z,101452.06
2023-05-19T20:34:42.425Z,101452.34
2023-05-19T20:37:13.824Z,101448.70
2023-05-19T20:39:43.441Z,101444.88
2023-05-19T20:42:11.727Z,101440.05
2023-05-19T20:44:40.165Z,101443.89
2023-05-19T20:47:10.101Z,101443.00
2023-05-19T20:49:38.732Z,101433.81
2023-05-19T20:53:40.910Z,101434.77
2023-05-19T20:56:10.814Z,101440.06
2023-05-19T20:58:39.889Z,101437.52
2023-05-19T21:01:08.419Z,101445.69
2023-05-19T21:03:37.089Z,101445.51
2023-05-19T21:06:05.636Z,101444.03
2023-05-19T21:08:34.215Z,101440.77
2023-05-19T21:11:02.649Z,101447.66
2023-05-19T21:13:31.767Z,101448.45
2023-05-19T21:16:00.430Z,101449.64
2023-05-19T21:18:29.066Z,101447.10
2023-05-19T21:20:57.697Z,101452.79
2023-05-19T21:23:26.243Z,101451.98
2023-05-19T21:25:55.071Z,101451.66
2023-05-19T21:28:23.534Z,101453.84
2023-05-19T21:30:52.105Z,101460.05
2023-05-19T21:33:20.734Z,101458.09
2023-05-19T21:35:49.316Z,101454.98
2023-05-19T21:38:23.752Z,101447.89
2023-05-19T21:40:53.465Z,101450.44
2023-05-19T21:43:22.936Z,101456.48
2023-05-19T21:45:51.731Z,101447.93
2023-05-19T21:48:20.429Z,101449.30
2023-05-19T21:50:55.926Z,101453.33
2023-05-19T21:53:25.261Z,101454.58
2023-05-19T21:55:53.892Z,101444.55
2023-05-19T21:58:22.887Z,101445.28
2023-05-19T22:00:53.459Z,101449.88
2023-05-19T22:03:22.474Z,101453.42
2023-05-19T22:05:53.063Z,101455.79
2023-05-19T22:08:26.215Z,101450.85
2023-05-19T22:10:54.820Z,101445.02
2023-05-19T22:13:23.267Z,101439.48
2023-05-19T22:15:51.824Z,101440.35
2023-05-19T22:18:20.480Z,101440.80
2023-05-19T22:20:49.088Z,101439.17
2023-05-19T22:23:17.603Z,101443.36
2023-05-19T22:25:47.015Z,101447.96
2023-05-19T22:28:15.779Z,101453.48
2023-05-19T22:30:44.372Z,101451.64
2023-05-19T22:33:13.102Z,101452.05
2023-05-19T22:35:42.108Z,101448.67
2023-05-19T22:38:10.848Z,101448.18
2023-05-19T22:40:39.565Z,101448.36
2023-05-19T22:43:08.099Z,101451.41
2023-05-19T22:45:36.973Z,101454.61
2023-05-19T22:48:06.151Z,101452.92
2023-05-19T22:50:34.742Z,101446.75
2023-05-19T22:53:03.360Z,101448.10
2023-05-19T22:55:32.502Z,101443.73
2023-05-19T22:58:01.217Z,101442.81
2023-05-19T23:00:29.762Z,101444.09
2023-05-19T23:02:58.519Z,101442.02
2023-05-19T23:05:26.957Z,101449.52
2023-05-19T23:07:55.571Z,101443.48
2023-05-19T23:10:24.012Z,101444.17
2023-05-19T23:12:52.658Z,101438.84
2023-05-19T23:15:21.165Z,101439.35
2023-05-19T23:17:49.818Z,101440.00
2023-05-19T23:20:18.355Z,101439.48
2023-05-19T23:22:46.819Z,101442.15
2023-05-19T23:25:15.244Z,101444.12
2023-05-19T23:27:43.697Z,101445.75
2023-05-19T23:30:12.360Z,101444.80
2023-05-19T23:32:41.157Z,101445.80
2023-05-19T23:35:16.067Z,101443.93
2023-05-19T23:37:44.635Z,101442.79
2023-05-19T23:40:13.249Z,101436.45
2023-05-19T23:42:41.654Z,101433.45
2023-05-19T23:45:10.471Z,101435.90
2023-05-19T23:51:10.955Z,101436.94
2023-05-19T23:53:39.808Z,101436.17
2023-05-19T23:56:08.535Z,101436.74
2023-05-19T23:58:37.655Z,101439.67
